createdAt,value
2022-07-28T00:00:29.971Z,10.53
2022-07-28T00:01:29.978Z,10.53
2022-07-28T00:02:30.157Z,10.49
2022-07-28T00:03:29.942Z,10.53
2022-07-28T00:04:29.853Z,10.38
2022-07-28T00:05:29.812Z,10.35
2022-07-28T00:06:29.792Z,10.41
2022-07-28T00:07:29.820Z,10.41
2022-07-28T00:08:29.781Z,10.34
2022-07-28T00:09:29.747Z,10.31
2022-07-28T00:10:29.686Z,10.34
2022-07-28T00:11:29.640Z,10.30
2022-07-28T00:12:29.577Z,10.31
2022-07-28T00:13:29.615Z,10.28
2022-07-28T00:14:29.548Z,10.35
2022-07-28T00:15:29.520Z,10.34
2022-07-28T00:16:29.491Z,10.35
2022-07-28T00:17:29.417Z,10.23
2022-07-28T00:18:29.802Z,10.33
2022-07-28T00:19:29.347Z,10.30
2022-07-28T00:20:29.322Z,10.25
2022-07-28T00:21:29.302Z,10.25
2022-07-28T00:22:29.264Z,10.30
2022-07-28T00:23:39.221Z,10.26
2022-07-28T00:24:29.218Z,10.33
2022-07-28T00:25:29.153Z,10.30
2022-07-28T00:26:29.210Z,10.25
2022-07-28T00:27:29.122Z,10.30
2022-07-28T00:28:29.112Z,10.23
2022-07-28T00:29:50.496Z,10.26
2022-07-28T00:30:29.002Z,10.20
2022-07-28T00:31:29.699Z,10.22
2022-07-28T00:32:29.610Z,10.12
2022-07-28T00:33:29.001Z,10.15
2022-07-28T00:34:28.877Z,10.22
2022-07-28T00:35:30.822Z,10.16
2022-07-28T00:36:28.806Z,10.22
2022-07-28T00:37:28.813Z,10.07
2022-07-28T00:38:28.889Z,10.05
2022-07-28T00:39:28.769Z,10.13
2022-07-28T00:40:28.685Z,10.10
2022-07-28T00:41:28.635Z,10.07
2022-07-28T00:42:28.598Z,10.15
2022-07-28T00:43:28.592Z,10.02
2022-07-28T00:44:28.615Z,9.99
2022-07-28T00:45:28.568Z,9.97
2022-07-28T00:46:28.543Z,9.94
2022-07-28T00:47:33.928Z,9.97
2022-07-28T00:48:28.421Z,9.94
2022-07-28T00:49:28.376Z,9.97
2022-07-28T00:50:28.388Z,9.95
2022-07-28T00:51:28.314Z,9.97
2022-07-28T00:52:28.305Z,9.94
2022-07-28T00:53:28.238Z,9.91
2022-07-28T00:54:28.214Z,9.89
2022-07-28T00:55:28.247Z,9.86
2022-07-28T00:56:28.183Z,9.91
2022-07-28T00:57:28.135Z,9.84
2022-07-28T00:58:28.077Z,9.91
2022-07-28T00:59:28.060Z,9.82
2022-07-28T01:00:28.076Z,9.83
2022-07-28T01:01:28.071Z,9.80
2022-07-28T01:02:28.143Z,9.73
2022-07-28T01:03:27.936Z,9.76
2022-07-28T01:04:27.879Z,9.74
2022-07-28T01:05:43.562Z,9.73
2022-07-28T01:06:27.962Z,9.82
2022-07-28T01:07:27.811Z,9.86
2022-07-28T01:08:27.764Z,9.79
2022-07-28T01:09:27.729Z,9.74
2022-07-28T01:10:27.692Z,9.72
2022-07-28T01:11:27.722Z,9.73
2022-07-28T01:12:27.684Z,9.72
2022-07-28T01:13:30.060Z,9.73
2022-07-28T01:14:27.552Z,9.69
2022-07-28T01:15:27.526Z,9.61
2022-07-28T01:16:27.761Z,9.64
2022-07-28T01:17:27.477Z,9.54
2022-07-28T01:18:27.420Z,9.58
2022-07-28T01:19:27.385Z,9.59
2022-07-28T01:20:27.353Z,9.51
2022-07-28T01:21:27.350Z,9.51
2022-07-28T01:22:28.232Z,9.62
2022-07-28T01:23:27.259Z,9.55
2022-07-28T01:24:27.318Z,9.55
2022-07-28T01:25:27.212Z,9.55
2022-07-28T01:26:27.153Z,9.54
2022-07-28T01:27:27.357Z,9.58
2022-07-28T01:28:27.194Z,9.51
2022-07-28T01:29:27.151Z,9.59
2022-07-28T01:30:27.762Z,9.56
2022-07-28T01:31:27.055Z,9.55
2022-07-28T01:32:26.968Z,9.50
2022-07-28T01:33:27.005Z,9.54
2022-07-28T01:34:26.906Z,9.54
2022-07-28T01:35:26.863Z,9.54
2022-07-28T01:36:26.837Z,9.56
2022-07-28T01:37:26.902Z,9.46
2022-07-28T01:38:26.771Z,9.48
2022-07-28T01:39:26.788Z,9.44
2022-07-28T01:40:26.700Z,9.36
2022-07-28T01:41:26.684Z,9.46
2022-07-28T01:42:26.717Z,9.39
2022-07-28T01:43:26.716Z,9.32
2022-07-28T01:44:26.567Z,9.37
2022-07-28T01:45:26.530Z,9.31
2022-07-28T01:46:26.540Z,9.37
2022-07-28T01:47:26.550Z,9.39
2022-07-28T01:48:26.499Z,9.31
2022-07-28T01:49:26.556Z,9.39
2022-07-28T01:50:26.382Z,9.28
2022-07-28T01:51:26.346Z,9.28
2022-07-28T01:52:29.236Z,9.32
2022-07-28T01:53:26.327Z,9.32
2022-07-28T01:54:26.320Z,9.28
2022-07-28T01:55:26.202Z,9.23
2022-07-28T01:56:33.130Z,9.28
2022-07-28T01:57:26.160Z,9.37
2022-07-28T01:58:26.137Z,9.32
2022-07-28T01:59:26.188Z,9.31
2022-07-28T02:00:26.115Z,9.29
2022-07-28T02:01:26.059Z,9.29
2022-07-28T02:02:25.973Z,9.29
2022-07-28T02:03:25.942Z,9.36
2022-07-28T02:04:25.905Z,9.31
2022-07-28T02:05:25.966Z,9.32
2022-07-28T02:06:25.899Z,9.26
2022-07-28T02:07:25.804Z,9.29
2022-07-28T02:08:25.774Z,9.29
2022-07-28T02:09:26.634Z,9.26
2022-07-28T02:10:25.718Z,9.23
2022-07-28T02:11:25.737Z,9.22
2022-07-28T02:12:25.650Z,9.28
2022-07-28T02:13:26.130Z,9.18
2022-07-28T02:14:25.583Z,9.18
2022-07-28T02:15:25.602Z,9.18
2022-07-28T02:16:25.592Z,9.22
2022-07-28T02:17:25.468Z,9.10
2022-07-28T02:18:25.451Z,9.19
2022-07-28T02:19:25.439Z,9.23
2022-07-28T02:20:25.456Z,9.14
2022-07-28T02:21:25.361Z,9.19
2022-07-28T02:22:25.324Z,9.21
2022-07-28T02:23:25.319Z,9.21
2022-07-28T02:24:25.304Z,9.14
2022-07-28T02:25:25.345Z,9.18
2022-07-28T02:26:25.233Z,9.19
2022-07-28T02:27:25.203Z,9.25
2022-07-28T02:28:25.127Z,9.22
2022-07-28T02:29:49.020Z,9.22
2022-07-28T02:30:25.053Z,9.21
2022-07-28T02:31:25.253Z,9.23
2022-07-28T02:32:27.699Z,9.28
2022-07-28T02:33:58.157Z,9.14
2022-07-28T02:34:27.845Z,9.21
2022-07-28T02:35:24.880Z,9.16
2022-07-28T02:36:24.907Z,9.16
2022-07-28T02:37:24.807Z,9.16
2022-07-28T02:38:24.779Z,9.22
2022-07-28T02:39:24.746Z,9.19
2022-07-28T02:40:24.722Z,9.21
2022-07-28T02:41:24.805Z,9.21
2022-07-28T02:42:24.646Z,9.13
2022-07-28T02:43:24.633Z,9.11
2022-07-28T02:44:24.587Z,9.03
2022-07-28T02:45:24.563Z,9.02
2022-07-28T02:46:24.658Z,9.10
2022-07-28T02:47:24.530Z,9.10
2022-07-28T02:48:24.450Z,9.00
2022-07-28T02:49:24.475Z,9.00
2022-07-28T02:50:24.386Z,9.00
2022-07-28T02:51:24.358Z,9.02
2022-07-28T02:52:24.383Z,8.97
2022-07-28T02:53:24.359Z,9.03
2022-07-28T02:54:24.253Z,8.99
2022-07-28T02:55:24.218Z,8.99
2022-07-28T02:56:24.176Z,8.94
2022-07-28T02:57:24.154Z,9.00
2022-07-28T02:58:24.188Z,8.97
2022-07-28T02:59:24.096Z,9.02
2022-07-28T03:00:24.052Z,8.94
2022-07-28T03:01:24.052Z,8.95
2022-07-28T03:02:23.986Z,8.97
2022-07-28T03:03:24.019Z,8.95
2022-07-28T03:04:23.914Z,8.94
2022-07-28T03:05:23.940Z,8.88
2022-07-28T03:06:28.393Z,8.85
2022-07-28T03:07:23.817Z,8.92
2022-07-28T03:08:23.859Z,8.89
2022-07-28T03:09:23.751Z,8.81
2022-07-28T03:10:33.350Z,8.82
2022-07-28T03:11:23.714Z,8.79
2022-07-28T03:12:23.658Z,8.73
2022-07-28T03:13:23.625Z,8.69
2022-07-28T03:14:23.652Z,8.73
2022-07-28T03:15:23.745Z,8.66
2022-07-28T03:16:23.571Z,8.69
2022-07-28T03:17:23.504Z,8.66
2022-07-28T03:18:23.476Z,8.66
2022-07-28T03:19:23.469Z,8.64
2022-07-28T03:20:23.397Z,8.69
2022-07-28T03:21:23.357Z,8.73
2022-07-28T03:22:23.315Z,8.63
2022-07-28T03:23:23.289Z,8.63
2022-07-28T03:24:23.320Z,8.69
2022-07-28T03:25:23.216Z,8.66
2022-07-28T03:26:23.196Z,8.66
2022-07-28T03:27:23.165Z,8.66
2022-07-28T03:28:23.134Z,8.73
2022-07-28T03:29:23.203Z,8.74
2022-07-28T03:30:23.091Z,8.81
2022-07-28T03:31:23.135Z,8.81
2022-07-28T03:32:22.979Z,8.87
2022-07-28T03:33:23.031Z,8.85
2022-07-28T03:34:22.915Z,8.87
2022-07-28T03:35:22.951Z,8.85
2022-07-28T03:36:22.916Z,8.95
2022-07-28T03:37:22.829Z,8.84
2022-07-28T03:38:22.781Z,8.70
2022-07-28T03:39:22.751Z,8.84
2022-07-28T03:40:22.784Z,8.85
2022-07-28T03:41:22.677Z,8.84
2022-07-28T03:42:22.650Z,8.94
2022-07-28T03:43:22.618Z,8.89
2022-07-28T03:44:26.954Z,8.88
2022-07-28T03:45:22.637Z,8.81
2022-07-28T03:46:22.561Z,8.95
2022-07-28T03:47:22.491Z,8.91
2022-07-28T03:48:22.456Z,8.84
2022-07-28T03:49:22.478Z,8.92
2022-07-28T03:50:22.383Z,8.97
2022-07-28T03:51:22.418Z,8.95
2022-07-28T03:52:22.314Z,9.02
2022-07-28T03:53:22.293Z,9.02
2022-07-28T03:54:22.250Z,9.02
2022-07-28T03:55:22.231Z,9.02
2022-07-28T03:56:22.246Z,9.10
2022-07-28T03:57:22.174Z,9.19
2022-07-28T03:58:22.122Z,9.16
2022-07-28T03:59:22.103Z,9.23
2022-07-28T04:00:22.050Z,9.22
2022-07-28T04:01:22.104Z,9.31
2022-07-28T04:02:22.074Z,9.28
2022-07-28T04:03:35.745Z,9.37
2022-07-28T04:04:21.915Z,9.43
2022-07-28T04:05:21.880Z,9.43
2022-07-28T04:06:21.913Z,9.40
2022-07-28T04:07:21.869Z,9.48
2022-07-28T04:08:21.789Z,9.58
2022-07-28T04:09:21.753Z,9.55
2022-07-28T04:10:21.732Z,9.56
2022-07-28T04:11:21.740Z,9.61
2022-07-28T04:12:21.708Z,9.50
2022-07-28T04:13:21.614Z,9.61
2022-07-28T04:14:22.079Z,9.69
2022-07-28T04:15:21.561Z,9.74
2022-07-28T04:16:22.337Z,9.74
2022-07-28T04:17:21.589Z,9.97
2022-07-28T04:18:21.455Z,10.19
2022-07-28T04:19:21.415Z,10.41
2022-07-28T04:20:21.392Z,10.59
2022-07-28T04:21:21.363Z,10.84
2022-07-28T04:22:21.317Z,10.84
2022-07-28T04:23:21.355Z,10.99
2022-07-28T04:24:21.324Z,10.90
2022-07-28T04:25:21.259Z,10.99
2022-07-28T04:26:21.191Z,11.18
2022-07-28T04:27:21.179Z,11.27
2022-07-28T04:28:21.189Z,11.32
2022-07-28T04:29:27.121Z,11.41
2022-07-28T04:30:21.078Z,11.50
2022-07-28T04:31:21.117Z,11.63
2022-07-28T04:32:20.999Z,11.57
2022-07-28T04:33:21.032Z,11.54
2022-07-28T04:34:20.998Z,11.59
2022-07-28T04:35:20.896Z,11.45
2022-07-28T04:36:20.899Z,11.45
2022-07-28T04:37:20.839Z,11.41
2022-07-28T04:38:20.852Z,11.44
2022-07-28T04:39:20.842Z,11.48
2022-07-28T04:40:20.741Z,11.60
2022-07-28T04:41:20.701Z,11.60
2022-07-28T04:42:20.676Z,11.59
2022-07-28T04:43:22.925Z,11.51
2022-07-28T04:44:20.606Z,11.57
2022-07-28T04:45:20.638Z,11.54
2022-07-28T04:46:20.611Z,11.54
2022-07-28T04:47:20.518Z,11.54
2022-07-28T04:48:20.476Z,11.59
2022-07-28T04:49:20.497Z,11.55
2022-07-28T04:50:20.474Z,11.59
2022-07-28T04:51:20.441Z,11.62
2022-07-28T04:52:20.351Z,11.63
2022-07-28T04:53:20.422Z,11.70
2022-07-28T04:54:26.084Z,11.75
2022-07-28T04:55:20.252Z,11.70
2022-07-28T04:56:20.289Z,11.75
2022-07-28T04:57:20.220Z,11.72
2022-07-28T04:58:20.162Z,11.75
2022-07-28T04:59:20.137Z,11.86
2022-07-28T05:00:20.092Z,11.86
2022-07-28T05:01:20.192Z,11.87
2022-07-28T05:02:20.032Z,11.97
2022-07-28T05:03:20.004Z,12.03
2022-07-28T05:04:20.068Z,12.07
2022-07-28T05:05:19.930Z,11.99
2022-07-28T05:06:19.971Z,12.12
2022-07-28T05:07:19.930Z,12.10
2022-07-28T05:08:19.839Z,12.15
2022-07-28T05:09:19.820Z,12.28
2022-07-28T05:10:19.773Z,12.46
2022-07-28T05:11:19.748Z,12.61
2022-07-28T05:12:19.760Z,12.70
2022-07-28T05:13:19.683Z,12.94
2022-07-28T05:14:19.657Z,13.00
2022-07-28T05:15:19.620Z,13.05
2022-07-28T05:16:19.637Z,13.16
2022-07-28T05:17:19.620Z,13.25
2022-07-28T05:18:19.534Z,13.23
2022-07-28T05:19:19.493Z,13.46
2022-07-28T05:20:19.458Z,13.57
2022-07-28T05:21:22.410Z,13.93
2022-07-28T05:22:19.584Z,14.70
2022-07-28T05:23:19.371Z,15.55
2022-07-28T05:24:19.336Z,16.42
2022-07-28T05:25:19.339Z,16.90
2022-07-28T05:26:19.268Z,17.22
2022-07-28T05:27:19.271Z,17.23
2022-07-28T05:28:19.439Z,17.19
2022-07-28T05:29:19.203Z,17.06
2022-07-28T05:30:19.166Z,16.81
2022-07-28T05:31:19.220Z,16.50
2022-07-28T05:32:19.115Z,16.21
2022-07-28T05:33:19.403Z,15.70
2022-07-28T05:34:19.035Z,15.42
2022-07-28T05:35:19.787Z,15.29
2022-07-28T05:36:19.156Z,15.09
2022-07-28T05:37:18.962Z,15.06
2022-07-28T05:38:18.955Z,15.02
2022-07-28T05:39:18.977Z,14.86
2022-07-28T05:40:18.835Z,14.88
2022-07-28T05:41:18.816Z,14.82
2022-07-28T05:42:18.781Z,14.69
2022-07-28T05:43:18.768Z,14.63
2022-07-28T05:44:18.720Z,14.68
2022-07-28T05:45:18.739Z,14.63
2022-07-28T05:46:18.707Z,14.66
2022-07-28T05:47:18.619Z,14.60
2022-07-28T05:48:18.591Z,14.59
2022-07-28T05:49:21.706Z,14.60
2022-07-28T05:50:18.601Z,14.63
2022-07-28T05:51:18.500Z,14.60
2022-07-28T05:52:18.465Z,14.62
2022-07-28T05:53:18.453Z,14.73
2022-07-28T05:54:18.408Z,14.65
2022-07-28T05:55:18.451Z,14.70
2022-07-28T05:56:18.349Z,14.82
2022-07-28T05:57:18.323Z,14.97
2022-07-28T05:58:18.291Z,15.04
2022-07-28T05:59:18.260Z,15.09
2022-07-28T06:00:18.224Z,15.17
2022-07-28T06:01:18.300Z,15.17
2022-07-28T06:02:18.258Z,15.19
2022-07-28T06:03:18.131Z,15.19
2022-07-28T06:04:26.597Z,15.31
2022-07-28T06:05:18.074Z,15.31
2022-07-28T06:06:18.042Z,15.39
2022-07-28T06:07:18.085Z,15.35
2022-07-28T06:08:17.980Z,15.27
2022-07-28T06:09:17.985Z,15.40
2022-07-28T06:10:17.943Z,15.42
2022-07-28T06:11:22.784Z,15.43
2022-07-28T06:12:17.907Z,15.55
2022-07-28T06:13:17.889Z,15.59
2022-07-28T06:14:18.328Z,15.70
2022-07-28T06:15:17.777Z,15.75
2022-07-28T06:16:17.836Z,15.75
2022-07-28T06:17:17.711Z,15.83
2022-07-28T06:18:17.877Z,15.79
2022-07-28T06:19:17.662Z,15.83
2022-07-28T06:20:17.686Z,16.00
2022-07-28T06:21:17.590Z,16.01
2022-07-28T06:22:17.562Z,16.08
2022-07-28T06:23:17.548Z,16.24
2022-07-28T06:24:18.014Z,16.31
2022-07-28T06:25:17.475Z,16.39
2022-07-28T06:26:17.440Z,16.39
2022-07-28T06:27:17.410Z,16.39
2022-07-28T06:28:17.379Z,16.53
2022-07-28T06:29:17.352Z,16.65
2022-07-28T06:30:17.384Z,16.58
2022-07-28T06:31:17.362Z,16.68
2022-07-28T06:32:17.291Z,16.72
2022-07-28T06:33:17.514Z,16.83
2022-07-28T06:34:17.492Z,16.87
2022-07-28T06:35:17.225Z,16.84
2022-07-28T06:36:17.145Z,16.87
2022-07-28T06:37:17.116Z,16.91
2022-07-28T06:38:17.088Z,16.99
2022-07-28T06:39:17.054Z,16.91
2022-07-28T06:40:17.095Z,16.96
2022-07-28T06:41:16.990Z,16.90
2022-07-28T06:42:16.968Z,17.04
2022-07-28T06:43:16.964Z,16.99
2022-07-28T06:44:17.257Z,17.09
2022-07-28T06:45:19.553Z,17.14
2022-07-28T06:46:17.149Z,17.12
2022-07-28T06:47:16.904Z,17.09
2022-07-28T06:48:16.794Z,17.16
2022-07-28T06:49:17.211Z,17.19
2022-07-28T06:50:25.932Z,17.34
2022-07-28T06:51:16.700Z,17.31
2022-07-28T06:52:16.748Z,17.33
2022-07-28T06:53:16.644Z,17.34
2022-07-28T06:54:16.901Z,17.44
2022-07-28T06:55:16.593Z,17.41
2022-07-28T06:56:16.870Z,17.49
2022-07-28T06:57:16.862Z,17.67
2022-07-28T06:58:16.622Z,17.67
2022-07-28T06:59:16.875Z,17.67
2022-07-28T07:00:16.447Z,17.83
2022-07-28T07:01:16.450Z,17.87
2022-07-28T07:02:16.389Z,17.95
2022-07-28T07:03:16.434Z,17.89
2022-07-28T07:04:16.773Z,17.87
2022-07-28T07:05:16.303Z,17.89
2022-07-28T07:06:16.274Z,17.97
2022-07-28T07:07:17.298Z,17.90
2022-07-28T07:08:16.218Z,17.79
2022-07-28T07:09:16.240Z,17.76
2022-07-28T07:10:16.160Z,17.87
2022-07-28T07:11:16.146Z,17.90
2022-07-28T07:12:16.098Z,18.05
2022-07-28T07:13:16.221Z,18.05
2022-07-28T07:14:16.406Z,18.05
2022-07-28T07:15:16.014Z,18.08
2022-07-28T07:16:16.075Z,18.05
2022-07-28T07:17:15.985Z,18.01
2022-07-28T07:18:16.378Z,18.05
2022-07-28T07:19:16.166Z,18.04
2022-07-28T07:20:17.213Z,18.18
2022-07-28T07:21:15.850Z,18.37
2022-07-28T07:22:15.815Z,18.43
2022-07-28T07:23:15.789Z,18.63
2022-07-28T07:24:16.090Z,18.73
2022-07-28T07:25:15.737Z,18.83
2022-07-28T07:26:16.317Z,18.92
2022-07-28T07:27:15.715Z,19.14
2022-07-28T07:28:15.661Z,19.27
2022-07-28T07:29:15.720Z,19.41
2022-07-28T07:30:15.600Z,19.49
2022-07-28T07:31:15.623Z,19.58
2022-07-28T07:32:15.536Z,19.67
2022-07-28T07:33:15.513Z,19.67
2022-07-28T07:34:15.678Z,19.74
2022-07-28T07:35:15.513Z,19.74
2022-07-28T07:36:15.479Z,19.74
2022-07-28T07:37:15.408Z,19.69
2022-07-28T07:38:15.379Z,19.70
2022-07-28T07:39:15.351Z,19.88
2022-07-28T07:40:15.401Z,19.96
2022-07-28T07:41:15.299Z,20.16
2022-07-28T07:42:15.275Z,20.14
2022-07-28T07:43:15.247Z,20.07
2022-07-28T07:44:15.557Z,20.10
2022-07-28T07:45:15.190Z,19.95
2022-07-28T07:46:15.284Z,20.10
2022-07-28T07:47:15.153Z,20.07
2022-07-28T07:48:15.110Z,20.04
2022-07-28T07:49:15.227Z,20.14
2022-07-28T07:50:15.060Z,20.26
2022-07-28T07:51:15.765Z,20.34
2022-07-28T07:52:15.063Z,20.39
2022-07-28T07:53:14.980Z,20.56
2022-07-28T07:54:15.252Z,20.65
2022-07-28T07:55:14.927Z,20.66
2022-07-28T07:56:14.975Z,20.40
2022-07-28T07:57:14.885Z,20.29
2022-07-28T07:58:14.848Z,20.31
2022-07-28T07:59:14.827Z,20.24
2022-07-28T08:00:29.313Z,20.21
2022-07-28T08:01:21.776Z,20.25
2022-07-28T08:02:14.824Z,20.28
2022-07-28T08:03:14.720Z,20.26
2022-07-28T08:04:15.254Z,20.29
2022-07-28T08:05:14.674Z,20.29
2022-07-28T08:06:14.645Z,20.44
2022-07-28T08:07:14.686Z,20.40
2022-07-28T08:08:14.594Z,20.40
2022-07-28T08:09:14.566Z,20.59
2022-07-28T08:10:14.543Z,20.65
2022-07-28T08:11:14.514Z,20.50
2022-07-28T08:12:14.485Z,20.39
2022-07-28T08:13:14.669Z,20.39
2022-07-28T08:14:14.796Z,20.29
2022-07-28T08:15:14.412Z,20.31
2022-07-28T08:16:14.427Z,20.11
2022-07-28T08:17:14.361Z,20.16
2022-07-28T08:18:14.332Z,20.26
2022-07-28T08:19:14.385Z,20.37
2022-07-28T08:20:14.290Z,20.58
2022-07-28T08:21:14.261Z,20.69
2022-07-28T08:22:14.233Z,20.81
2022-07-28T08:23:14.205Z,20.99
2022-07-28T08:24:27.608Z,21.11
2022-07-28T08:25:14.153Z,21.24
2022-07-28T08:26:14.129Z,21.35
2022-07-28T08:27:14.100Z,21.36
2022-07-28T08:28:14.080Z,21.42
2022-07-28T08:29:14.110Z,21.40
2022-07-28T08:30:14.026Z,21.50
2022-07-28T08:31:14.081Z,21.52
2022-07-28T08:32:13.984Z,21.60
2022-07-28T08:33:13.952Z,21.62
2022-07-28T08:34:26.358Z,21.66
2022-07-28T08:35:32.417Z,21.76
2022-07-28T08:36:13.922Z,21.77
2022-07-28T08:37:13.893Z,21.82
2022-07-28T08:38:13.847Z,21.76
2022-07-28T08:39:13.854Z,21.85
2022-07-28T08:40:13.832Z,21.85
2022-07-28T08:41:13.751Z,21.80
2022-07-28T08:42:13.742Z,21.91
2022-07-28T08:43:13.701Z,22.02
2022-07-28T08:44:13.939Z,22.17
2022-07-28T08:45:13.703Z,22.08
2022-07-28T08:46:13.675Z,22.10
2022-07-28T08:47:13.599Z,21.95
2022-07-28T08:48:13.609Z,21.85
2022-07-28T08:49:14.900Z,21.96
2022-07-28T08:50:13.727Z,21.95
2022-07-28T08:51:13.502Z,22.06
2022-07-28T08:52:13.479Z,22.04
2022-07-28T08:53:13.495Z,22.29
2022-07-28T08:54:13.680Z,22.20
2022-07-28T08:55:19.141Z,22.28
2022-07-28T08:56:13.434Z,22.38
2022-07-28T08:57:13.363Z,22.45
2022-07-28T08:58:13.332Z,22.39
2022-07-28T08:59:13.331Z,22.28
2022-07-28T09:00:13.284Z,21.92
2022-07-28T09:01:13.927Z,21.72
2022-07-28T09:02:13.353Z,21.46
2022-07-28T09:03:13.319Z,21.30
2022-07-28T09:04:13.470Z,21.32
2022-07-28T09:05:13.198Z,21.36
2022-07-28T09:06:13.160Z,21.48
2022-07-28T09:07:13.230Z,21.52
2022-07-28T09:08:13.156Z,21.64
2022-07-28T09:09:13.103Z,21.91
2022-07-28T09:10:13.095Z,21.89
2022-07-28T09:11:13.022Z,21.95
2022-07-28T09:12:13.044Z,22.10
2022-07-28T09:13:13.431Z,22.15
2022-07-28T09:14:13.205Z,22.23
2022-07-28T09:15:12.976Z,22.23
2022-07-28T09:16:13.003Z,22.35
2022-07-28T09:17:12.946Z,22.22
2022-07-28T09:18:12.893Z,22.50
2022-07-28T09:19:12.873Z,22.55
2022-07-28T09:20:12.874Z,22.53
2022-07-28T09:21:12.769Z,22.48
2022-07-28T09:22:12.748Z,22.65
2022-07-28T09:23:41.798Z,22.65
2022-07-28T09:24:12.970Z,22.59
2022-07-28T09:25:12.689Z,22.63
2022-07-28T09:26:12.985Z,22.66
2022-07-28T09:27:12.627Z,22.59
2022-07-28T09:28:12.596Z,22.47
2022-07-28T09:29:12.650Z,22.48
2022-07-28T09:30:12.574Z,22.38
2022-07-28T09:31:12.555Z,22.44
2022-07-28T09:32:12.500Z,22.45
2022-07-28T09:33:12.480Z,22.44
2022-07-28T09:34:12.900Z,22.48
2022-07-28T09:35:12.518Z,22.50
2022-07-28T09:36:12.466Z,22.57
2022-07-28T09:37:12.385Z,22.57
2022-07-28T09:38:12.367Z,22.50
2022-07-28T09:39:12.333Z,22.51
2022-07-28T09:40:12.313Z,22.59
2022-07-28T09:41:12.361Z,22.69
2022-07-28T09:42:12.263Z,22.63
2022-07-28T09:43:12.235Z,22.59
2022-07-28T09:44:12.504Z,22.44
2022-07-28T09:45:23.041Z,22.36
2022-07-28T09:46:12.385Z,22.29
2022-07-28T09:47:12.553Z,22.18
2022-07-28T09:48:12.253Z,22.22
2022-07-28T09:49:12.216Z,22.29
2022-07-28T09:50:12.071Z,22.26
2022-07-28T09:51:15.258Z,22.25
2022-07-28T09:52:12.109Z,22.22
2022-07-28T09:53:11.996Z,22.26
2022-07-28T09:54:12.341Z,22.32
2022-07-28T09:55:11.944Z,22.26
2022-07-28T09:56:11.942Z,22.11
2022-07-28T09:57:11.945Z,22.07
2022-07-28T09:58:11.926Z,22.13
2022-07-28T09:59:12.853Z,22.00
2022-07-28T10:00:11.821Z,21.88
2022-07-28T10:01:12.349Z,21.73
2022-07-28T10:02:11.910Z,21.62
2022-07-28T10:03:11.814Z,21.64
2022-07-28T10:04:11.737Z,21.57
2022-07-28T10:05:11.716Z,21.61
2022-07-28T10:06:11.678Z,21.69
2022-07-28T10:07:11.697Z,21.76
2022-07-28T10:08:11.835Z,21.72
2022-07-28T10:09:11.701Z,21.91
2022-07-28T10:10:11.572Z,21.98
2022-07-28T10:11:11.554Z,22.00
2022-07-28T10:12:11.519Z,22.13
2022-07-28T10:13:11.495Z,22.11
2022-07-28T10:14:11.644Z,22.28
2022-07-28T10:15:11.535Z,22.15
2022-07-28T10:16:11.467Z,22.25
2022-07-28T10:17:11.398Z,22.28
2022-07-28T10:18:11.414Z,22.43
2022-07-28T10:19:11.390Z,22.45
2022-07-28T10:20:11.320Z,22.70
2022-07-28T10:21:11.376Z,22.73
2022-07-28T10:22:11.286Z,22.73
2022-07-28T10:23:11.262Z,22.55
2022-07-28T10:24:11.438Z,22.69
2022-07-28T10:25:11.202Z,22.63
2022-07-28T10:26:12.964Z,22.75
2022-07-28T10:27:11.363Z,22.68
2022-07-28T10:28:11.129Z,22.76
2022-07-28T10:29:11.134Z,22.76
2022-07-28T10:30:11.095Z,22.55
2022-07-28T10:31:11.181Z,22.39
2022-07-28T10:32:11.035Z,22.32
2022-07-28T10:33:11.201Z,22.18
2022-07-28T10:34:16.009Z,22.10
2022-07-28T10:35:10.967Z,21.99
2022-07-28T10:36:10.945Z,21.98
2022-07-28T10:37:10.943Z,21.89
2022-07-28T10:38:10.889Z,21.93
2022-07-28T10:39:11.041Z,22.02
2022-07-28T10:40:11.120Z,22.06
2022-07-28T10:41:10.825Z,22.06
2022-07-28T10:42:10.781Z,22.13
2022-07-28T10:43:10.837Z,22.10
2022-07-28T10:44:10.730Z,22.06
2022-07-28T10:45:10.774Z,22.08
2022-07-28T10:46:15.604Z,22.10
2022-07-28T10:47:17.883Z,22.18
2022-07-28T10:48:10.845Z,22.15
2022-07-28T10:49:10.648Z,22.07
2022-07-28T10:50:10.578Z,22.04
2022-07-28T10:51:10.624Z,22.11
2022-07-28T10:52:30.457Z,22.00
2022-07-28T10:53:10.514Z,21.89
2022-07-28T10:54:10.511Z,21.85
2022-07-28T10:55:10.473Z,21.79
2022-07-28T10:56:10.428Z,21.80
2022-07-28T10:57:10.589Z,21.88
2022-07-28T10:58:11.116Z,21.76
2022-07-28T10:59:10.351Z,21.80
2022-07-28T11:00:15.540Z,21.73
2022-07-28T11:01:17.059Z,21.70
2022-07-28T11:02:10.371Z,21.91
2022-07-28T11:03:13.916Z,21.76
2022-07-28T11:04:10.226Z,21.88
2022-07-28T11:05:10.192Z,21.72
2022-07-28T11:06:10.173Z,21.75
2022-07-28T11:07:10.142Z,21.79
2022-07-28T11:08:10.113Z,21.80
2022-07-28T11:09:10.318Z,21.92
2022-07-28T11:10:10.081Z,21.76
2022-07-28T11:11:10.049Z,21.83
2022-07-28T11:12:10.183Z,21.85
2022-07-28T11:13:14.398Z,21.80
2022-07-28T11:14:09.963Z,21.92
2022-07-28T11:15:18.300Z,22.06
2022-07-28T11:16:09.915Z,22.18
2022-07-28T11:17:10.167Z,22.26
2022-07-28T11:18:09.862Z,22.30
2022-07-28T11:19:40.598Z,22.25
2022-07-28T11:20:27.311Z,22.39
2022-07-28T11:21:09.828Z,22.38
2022-07-28T11:22:09.757Z,22.55
2022-07-28T11:23:09.731Z,22.54
2022-07-28T11:24:09.710Z,22.62
2022-07-28T11:25:21.000Z,22.45
2022-07-28T11:26:09.750Z,22.48
2022-07-28T11:27:09.635Z,22.28
2022-07-28T11:28:09.612Z,22.17
2022-07-28T11:29:09.581Z,21.99
2022-07-28T11:30:09.552Z,21.96
2022-07-28T11:31:09.657Z,21.98
2022-07-28T11:32:09.557Z,21.91
2022-07-28T11:33:09.537Z,22.02
2022-07-28T11:34:09.453Z,22.15
2022-07-28T11:35:09.436Z,22.15
2022-07-28T11:36:09.398Z,22.18
2022-07-28T11:37:09.455Z,22.00
2022-07-28T11:38:09.356Z,21.93
2022-07-28T11:39:09.364Z,21.93
2022-07-28T11:40:09.302Z,22.11
2022-07-28T11:41:09.267Z,22.11
2022-07-28T11:42:09.308Z,22.22
2022-07-28T11:43:09.349Z,22.25
2022-07-28T11:44:09.192Z,22.10
2022-07-28T11:45:09.165Z,22.17
2022-07-28T11:46:11.435Z,22.10
2022-07-28T11:47:09.118Z,21.99
2022-07-28T11:48:09.143Z,22.10
2022-07-28T11:49:14.886Z,22.11
2022-07-28T11:50:09.034Z,22.10
2022-07-28T11:51:09.038Z,22.28
2022-07-28T11:52:08.987Z,22.30
2022-07-28T11:53:09.007Z,22.36
2022-07-28T11:54:08.935Z,22.39
2022-07-28T11:55:08.909Z,22.51
2022-07-28T11:56:08.984Z,22.53
2022-07-28T11:57:08.860Z,22.51
2022-07-28T11:58:08.886Z,22.75
2022-07-28T11:59:08.800Z,22.73
2022-07-28T12:00:08.780Z,22.90
2022-07-28T12:01:08.749Z,23.05
2022-07-28T12:02:08.777Z,23.18
2022-07-28T12:03:08.754Z,23.31
2022-07-28T12:04:10.433Z,23.32
2022-07-28T12:05:08.732Z,23.40
2022-07-28T12:06:08.641Z,23.27
2022-07-28T12:07:08.598Z,23.25
2022-07-28T12:08:08.669Z,23.31
2022-07-28T12:09:08.600Z,23.32
2022-07-28T12:10:08.527Z,23.44
2022-07-28T12:11:08.513Z,23.55
2022-07-28T12:12:08.473Z,23.54
2022-07-28T12:13:08.996Z,23.56
2022-07-28T12:14:08.430Z,23.62
2022-07-28T12:15:08.397Z,23.69
2022-07-28T12:16:08.383Z,23.83
2022-07-28T12:17:08.385Z,23.96
2022-07-28T12:18:08.321Z,23.91
2022-07-28T12:19:08.378Z,24.01
2022-07-28T12:20:14.039Z,24.06
2022-07-28T12:21:08.249Z,24.06
2022-07-28T12:22:08.227Z,24.11
2022-07-28T12:23:08.214Z,24.13
2022-07-28T12:24:08.866Z,24.14
2022-07-28T12:25:13.331Z,24.18
2022-07-28T12:26:10.193Z,24.10
2022-07-28T12:27:08.113Z,24.06
2022-07-28T12:28:08.081Z,24.17
2022-07-28T12:29:08.585Z,24.17
2022-07-28T12:30:08.947Z,24.18
2022-07-28T12:31:08.008Z,24.01
2022-07-28T12:32:08.037Z,23.92
2022-07-28T12:33:07.963Z,23.86
2022-07-28T12:34:07.937Z,23.92
2022-07-28T12:35:07.965Z,23.83
2022-07-28T12:36:07.885Z,23.86
2022-07-28T12:37:07.860Z,23.86
2022-07-28T12:38:07.846Z,23.78
2022-07-28T12:39:12.730Z,23.81
2022-07-28T12:40:07.846Z,23.81
2022-07-28T12:41:07.913Z,23.65
2022-07-28T12:42:07.742Z,23.50
2022-07-28T12:43:07.716Z,23.48
2022-07-28T12:44:07.692Z,23.48
2022-07-28T12:45:07.682Z,23.58
2022-07-28T12:46:07.781Z,23.48
2022-07-28T12:47:08.430Z,23.32
2022-07-28T12:48:07.598Z,23.34
2022-07-28T12:49:07.632Z,23.28
2022-07-28T12:50:07.549Z,23.36
2022-07-28T12:51:07.663Z,23.43
2022-07-28T12:52:07.497Z,23.36
2022-07-28T12:53:07.481Z,23.69
2022-07-28T12:54:07.454Z,23.81
2022-07-28T12:55:07.420Z,23.93
2022-07-28T12:56:07.401Z,23.99
2022-07-28T12:57:07.468Z,23.71
2022-07-28T12:58:09.324Z,23.77
2022-07-28T12:59:07.328Z,23.69